createdAt,value
2023-05-23T00:01:55.384Z,11.10
2023-05-23T00:04:22.747Z,11.70
2023-05-23T00:06:50.857Z,10.93
2023-05-23T00:09:18.308Z,11.60
2023-05-23T00:11:45.879Z,10.98
2023-05-23T00:14:14.414Z,11.25
2023-05-23T00:16:46.772Z,11.75
2023-05-23T00:19:17.277Z,11.43
2023-05-23T00:21:51.319Z,11.60
2023-05-23T00:24:19.111Z,11.50
2023-05-23T00:26:47.190Z,11.20
2023-05-23T00:29:16.844Z,12.43
2023-05-23T00:31:48.008Z,11.93
2023-05-23T00:34:18.073Z,11.30
2023-05-23T00:36:48.198Z,12.15
2023-05-23T00:39:20.352Z,12.15
2023-05-23T00:41:52.306Z,12.43
2023-05-23T00:44:22.004Z,12.32
2023-05-23T00:46:53.982Z,12.25
2023-05-23T00:49:21.528Z,13.20
2023-05-23T00:51:51.934Z,12.60
2023-05-23T00:54:24.900Z,13.00
2023-05-23T00:56:52.122Z,11.95
2023-05-23T00:59:21.666Z,12.05
2023-05-23T01:01:54.902Z,11.55
2023-05-23T01:04:27.263Z,11.65
2023-05-23T01:06:58.018Z,11.80
2023-05-23T01:09:27.912Z,11.68
2023-05-23T01:12:17.282Z,12.63
2023-05-23T01:15:12.718Z,12.20
2023-05-23T01:17:53.113Z,11.85
2023-05-23T01:20:27.639Z,12.00
2023-05-23T01:23:19.315Z,11.93
2023-05-23T01:26:19.906Z,11.35
2023-05-23T01:28:51.502Z,11.60
2023-05-23T01:31:20.211Z,12.25
2023-05-23T01:33:50.410Z,11.98
2023-05-23T01:36:17.609Z,11.00
2023-05-23T01:38:44.873Z,11.25
2023-05-23T01:41:12.099Z,11.90
2023-05-23T01:43:39.787Z,12.32
2023-05-23T01:46:08.345Z,12.25
2023-05-23T01:48:36.832Z,11.90
2023-05-23T01:51:04.255Z,11.98
2023-05-23T01:53:32.578Z,12.90
2023-05-23T01:56:03.857Z,12.32
2023-05-23T01:58:31.354Z,12.80
2023-05-23T02:00:59.101Z,13.27
2023-05-23T02:03:26.901Z,13.60
2023-05-23T02:05:54.135Z,14.50
2023-05-23T02:08:21.762Z,13.05
2023-05-23T02:10:48.891Z,12.65
2023-05-23T02:13:16.059Z,13.07
2023-05-23T02:15:43.306Z,12.77
2023-05-23T02:18:10.595Z,12.65
2023-05-23T02:20:37.717Z,11.95
2023-05-23T02:23:05.037Z,11.68
2023-05-23T02:25:32.368Z,11.70
2023-05-23T02:27:59.596Z,11.00
2023-05-23T02:30:26.713Z,11.48
2023-05-23T02:32:54.055Z,10.98
2023-05-23T02:35:22.652Z,11.27
2023-05-23T02:37:49.901Z,10.77
2023-05-23T02:40:17.198Z,11.25
2023-05-23T02:42:44.357Z,11.30
2023-05-23T02:45:11.642Z,11.52
2023-05-23T02:47:38.823Z,11.73
2023-05-23T02:50:06.663Z,11.85
2023-05-23T02:52:33.892Z,12.07
2023-05-23T02:55:01.093Z,12.45
2023-05-23T02:57:28.326Z,12.27
2023-05-23T02:59:56.087Z,12.55
2023-05-23T03:02:23.378Z,12.05
2023-05-23T03:04:51.308Z,12.05
2023-05-23T03:07:27.499Z,12.48
2023-05-23T03:09:56.567Z,13.50
2023-05-23T03:12:23.821Z,13.57
2023-05-23T03:14:51.119Z,12.77
2023-05-23T03:17:18.320Z,12.90
2023-05-23T03:19:45.580Z,12.57
2023-05-23T03:22:12.826Z,13.05
2023-05-23T03:24:40.033Z,14.15
2023-05-23T03:27:07.406Z,13.75
2023-05-23T03:29:34.714Z,12.65
2023-05-23T03:32:01.990Z,13.23
2023-05-23T03:34:29.278Z,12.75
2023-05-23T03:36:56.590Z,13.98
2023-05-23T03:39:24.884Z,13.00
2023-05-23T03:41:52.201Z,11.40
2023-05-23T03:44:19.641Z,10.73
2023-05-23T03:46:46.897Z,11.23
2023-05-23T03:49:14.133Z,10.35
2023-05-23T03:51:41.535Z,10.05
2023-05-23T03:54:08.835Z,9.95
2023-05-23T03:56:36.066Z,9.90
2023-05-23T03:59:03.427Z,9.85
2023-05-23T04:01:30.652Z,8.95
2023-05-23T04:03:58.304Z,8.93
2023-05-23T04:06:25.705Z,9.15
2023-05-23T04:08:52.966Z,8.38
2023-05-23T04:11:20.199Z,8.63
2023-05-23T04:13:47.474Z,8.30
2023-05-23T04:16:14.738Z,8.18
2023-05-23T04:18:43.760Z,8.32
2023-05-23T04:21:10.976Z,8.63
2023-05-23T04:23:38.709Z,7.32
2023-05-23T04:26:06.053Z,6.70
2023-05-23T04:28:34.609Z,6.75
2023-05-23T04:31:03.487Z,6.13
2023-05-23T04:33:30.889Z,6.90
2023-05-23T04:35:58.032Z,6.60
2023-05-23T04:38:25.410Z,6.85
2023-05-23T04:40:53.085Z,6.70
2023-05-23T04:43:21.026Z,6.53
2023-05-23T04:45:51.257Z,6.72
2023-05-23T04:48:21.732Z,6.20
2023-05-23T04:50:51.062Z,5.72
2023-05-23T04:53:18.429Z,6.20
2023-05-23T04:55:46.036Z,5.90
2023-05-23T04:58:13.327Z,5.60
2023-05-23T05:00:40.983Z,5.82
2023-05-23T05:03:10.114Z,5.85
2023-05-23T05:05:37.578Z,6.20
2023-05-23T05:08:04.767Z,6.18
2023-05-23T05:10:32.055Z,6.20
2023-05-23T05:12:59.209Z,6.00
2023-05-23T05:15:26.285Z,5.85
2023-05-23T05:17:53.971Z,5.63
2023-05-23T05:20:22.027Z,6.53
2023-05-23T05:22:56.603Z,5.90
2023-05-23T05:25:24.188Z,6.68
2023-05-23T05:27:52.746Z,6.10
2023-05-23T05:30:20.314Z,6.72
2023-05-23T05:32:48.066Z,6.22
2023-05-23T05:35:15.340Z,6.60
2023-05-23T05:37:42.496Z,6.18
2023-05-23T05:40:10.182Z,5.70
2023-05-23T05:42:37.298Z,6.22
2023-05-23T05:45:04.960Z,5.38
2023-05-23T05:47:32.133Z,5.80
2023-05-23T05:49:59.309Z,5.15
2023-05-23T05:52:26.433Z,5.03
2023-05-23T05:54:53.592Z,5.93
2023-05-23T05:57:20.837Z,5.78
2023-05-23T05:59:47.970Z,5.78
2023-05-23T06:02:15.163Z,5.82
2023-05-23T06:04:42.311Z,5.75
2023-05-23T06:07:09.688Z,5.38
2023-05-23T06:09:36.872Z,4.90
2023-05-23T06:12:04.162Z,5.10
2023-05-23T06:14:31.245Z,4.85
2023-05-23T06:16:58.813Z,5.20
2023-05-23T06:19:26.037Z,5.75
2023-05-23T06:21:53.795Z,6.05
2023-05-23T06:24:21.047Z,5.65
2023-05-23T06:26:48.221Z,12.90
2023-05-23T06:29:15.366Z,5.53
2023-05-23T06:31:42.627Z,5.85
2023-05-23T06:34:09.936Z,5.10
2023-05-23T06:36:37.069Z,5.85
2023-05-23T06:39:04.310Z,5.82
2023-05-23T06:41:31.399Z,5.60
2023-05-23T06:43:58.593Z,5.63
2023-05-23T06:46:25.942Z,6.00
2023-05-23T06:49:02.735Z,6.10
2023-05-23T06:51:40.358Z,5.85
2023-05-23T06:54:07.526Z,5.68
2023-05-23T06:56:34.676Z,7.10
2023-05-23T06:59:01.831Z,6.43
2023-05-23T07:01:29.039Z,6.07
2023-05-23T07:03:56.288Z,6.22
2023-05-23T07:06:23.533Z,6.70
2023-05-23T07:08:50.716Z,6.63
2023-05-23T07:11:18.001Z,6.53
2023-05-23T07:13:45.117Z,6.43
2023-05-23T07:16:12.573Z,7.15
2023-05-23T07:18:39.848Z,7.47
2023-05-23T07:21:07.069Z,6.78
2023-05-23T07:23:34.733Z,7.00
2023-05-23T07:26:03.420Z,7.00
2023-05-23T07:28:31.052Z,7.40
2023-05-23T07:30:58.654Z,8.70
2023-05-23T07:33:26.216Z,8.70
2023-05-23T07:35:53.378Z,10.63
2023-05-23T07:38:21.287Z,11.50
2023-05-23T07:40:58.851Z,11.20
2023-05-23T07:43:30.142Z,11.38
2023-05-23T07:45:57.244Z,11.13
2023-05-23T07:48:24.654Z,11.43
2023-05-23T07:50:55.210Z,14.63
2023-05-23T07:53:22.848Z,12.10
2023-05-23T07:55:50.047Z,12.68
2023-05-23T07:58:17.609Z,14.48
2023-05-23T08:00:46.343Z,14.25
2023-05-23T08:03:13.652Z,15.15
2023-05-23T08:05:40.877Z,16.10
2023-05-23T08:08:08.042Z,16.27
2023-05-23T08:10:35.211Z,15.55
2023-05-23T08:13:06.957Z,15.73
2023-05-23T08:15:34.142Z,16.13
2023-05-23T08:18:01.513Z,17.30
2023-05-23T08:20:32.458Z,17.52
2023-05-23T08:23:03.417Z,16.13
2023-05-23T08:25:33.456Z,17.63
2023-05-23T08:28:01.652Z,17.33
2023-05-23T08:30:29.794Z,17.20
2023-05-23T08:32:58.195Z,16.33
2023-05-23T08:35:25.756Z,15.13
2023-05-23T08:37:52.974Z,17.52
2023-05-23T08:40:22.004Z,16.58
2023-05-23T08:42:50.586Z,16.30
2023-05-23T08:45:18.626Z,17.05
2023-05-23T08:47:47.487Z,17.73
2023-05-23T08:50:18.556Z,17.25
2023-05-23T08:52:58.929Z,17.52
2023-05-23T08:55:27.498Z,16.33
2023-05-23T08:58:01.094Z,16.25
2023-05-23T09:00:28.696Z,15.32
2023-05-23T09:02:57.454Z,14.15
2023-05-23T09:05:26.616Z,13.85
2023-05-23T09:07:54.033Z,14.35
2023-05-23T09:10:21.640Z,14.40
2023-05-23T09:12:49.363Z,14.30
2023-05-23T09:15:17.470Z,13.48
2023-05-23T09:17:45.705Z,14.25
2023-05-23T09:20:17.589Z,13.88
2023-05-23T09:22:48.906Z,10.70
2023-05-23T09:25:16.561Z,10.02
2023-05-23T09:27:46.884Z,10.40
2023-05-23T09:30:15.617Z,9.65
2023-05-23T09:32:42.928Z,9.73
2023-05-23T09:35:14.323Z,9.68
2023-05-23T09:37:49.193Z,18.42
2023-05-23T09:40:16.826Z,12.35
2023-05-23T09:42:45.969Z,10.15
2023-05-23T09:45:14.594Z,9.63
2023-05-23T09:47:52.293Z,10.20
2023-05-23T09:50:20.429Z,9.80
2023-05-23T09:52:48.333Z,10.30
2023-05-23T09:55:15.853Z,10.25
2023-05-23T09:57:44.413Z,9.68
2023-05-23T10:00:14.237Z,9.73
2023-05-23T10:02:56.150Z,9.88
2023-05-23T10:05:36.510Z,10.02
2023-05-23T10:08:13.715Z,9.40
2023-05-23T10:11:17.111Z,9.25
2023-05-23T10:13:45.990Z,10.10
2023-05-23T10:16:40.332Z,9.82
2023-05-23T10:19:20.012Z,10.07
2023-05-23T10:21:52.209Z,9.80
2023-05-23T10:24:20.000Z,10.13
2023-05-23T10:26:48.456Z,9.73
2023-05-23T10:29:15.601Z,10.07
2023-05-23T10:31:43.649Z,9.82
2023-05-23T10:34:24.694Z,9.82
2023-05-23T10:37:05.608Z,9.80
2023-05-23T10:40:16.141Z,9.77
2023-05-23T10:43:08.117Z,10.50
2023-05-23T10:45:45.706Z,10.00
2023-05-23T10:48:23.820Z,9.90
2023-05-23T10:51:08.125Z,9.60
2023-05-23T10:53:40.146Z,9.70
2023-05-23T10:56:09.059Z,8.73
2023-05-23T10:58:38.780Z,8.45
2023-05-23T11:01:20.175Z,9.70
2023-05-23T11:03:47.830Z,10.48
2023-05-23T11:06:43.365Z,11.40
2023-05-23T11:09:18.961Z,12.75
2023-05-23T11:11:54.557Z,11.98
2023-05-23T11:14:53.947Z,11.48
2023-05-23T11:17:35.315Z,12.55
2023-05-23T11:20:09.093Z,10.98
2023-05-23T11:22:36.940Z,11.90
2023-05-23T11:25:09.224Z,10.75
2023-05-23T11:27:38.617Z,10.32
2023-05-23T11:30:16.013Z,9.85
2023-05-23T11:32:51.298Z,10.73
2023-05-23T11:35:18.739Z,10.57
2023-05-23T11:37:46.020Z,11.32
2023-05-23T11:40:36.940Z,11.63
2023-05-23T11:43:07.565Z,10.60
2023-05-23T11:45:36.249Z,10.65
2023-05-23T11:48:13.938Z,11.07
2023-05-23T11:50:52.397Z,10.90
2023-05-23T11:53:22.013Z,10.95
2023-05-23T11:56:02.408Z,9.52
2023-05-23T11:58:33.445Z,9.38
2023-05-23T12:01:05.194Z,9.20
2023-05-23T12:03:33.232Z,8.93
2023-05-23T12:06:02.156Z,8.27
2023-05-23T12:08:29.411Z,8.15
2023-05-23T12:11:01.627Z,8.00
2023-05-23T12:13:30.337Z,7.97
2023-05-23T12:15:59.859Z,9.52
2023-05-23T12:18:32.348Z,9.65
2023-05-23T12:21:03.858Z,10.40
2023-05-23T12:23:33.888Z,10.63
2023-05-23T12:26:07.318Z,11.38
2023-05-23T12:28:39.479Z,10.65
2023-05-23T12:31:22.951Z,8.27
2023-05-23T12:33:53.572Z,7.72
2023-05-23T12:36:27.949Z,7.82
2023-05-23T12:39:03.574Z,8.50
2023-05-23T12:41:32.649Z,9.60
2023-05-23T12:44:00.663Z,10.32
2023-05-23T12:46:28.432Z,9.57
2023-05-23T12:48:55.993Z,11.32
2023-05-23T12:51:23.156Z,12.07
2023-05-23T12:53:50.920Z,12.80
2023-05-23T12:56:18.221Z,20.52
2023-05-23T12:58:45.372Z,13.90
2023-05-23T13:01:12.689Z,14.25
2023-05-23T13:03:39.933Z,13.05
2023-05-23T13:06:07.554Z,14.68
2023-05-23T13:08:34.781Z,14.50
2023-05-23T13:11:02.082Z,14.80
2023-05-23T13:13:30.039Z,14.30
2023-05-23T13:15:57.372Z,14.40
2023-05-23T13:18:24.966Z,13.90
2023-05-23T13:20:52.250Z,15.38
2023-05-23T13:23:19.388Z,15.68
2023-05-23T13:25:48.051Z,14.30
2023-05-23T13:28:15.239Z,14.15
2023-05-23T13:30:44.303Z,14.75
2023-05-23T13:33:13.943Z,13.85
2023-05-23T13:35:41.442Z,13.90
2023-05-23T13:38:08.959Z,14.27
2023-05-23T13:40:36.240Z,13.60
2023-05-23T13:43:03.486Z,13.40
2023-05-23T13:45:31.311Z,13.20
2023-05-23T13:47:58.424Z,13.05
2023-05-23T13:50:26.240Z,13.88
2023-05-23T13:52:53.356Z,13.52
2023-05-23T13:55:20.592Z,11.65
2023-05-23T13:57:48.024Z,12.10
2023-05-23T14:00:16.466Z,11.65
2023-05-23T14:02:44.020Z,10.30
2023-05-23T14:05:11.259Z,10.55
2023-05-23T14:07:38.836Z,10.50
2023-05-23T14:10:07.350Z,10.25
2023-05-23T14:12:34.586Z,10.32
2023-05-23T14:15:01.834Z,9.77
2023-05-23T14:17:29.113Z,10.63
2023-05-23T14:19:56.386Z,10.02
2023-05-23T14:22:23.514Z,10.50
2023-05-23T14:24:50.895Z,10.90
2023-05-23T14:27:19.171Z,10.57
2023-05-23T14:29:49.013Z,10.75
2023-05-23T14:32:16.276Z,10.23
2023-05-23T14:34:43.564Z,10.90
2023-05-23T14:37:10.802Z,10.13
2023-05-23T14:39:38.030Z,10.38
2023-05-23T14:42:05.574Z,12.00
2023-05-23T14:44:32.805Z,11.75
2023-05-23T14:46:59.996Z,11.68
2023-05-23T14:49:27.114Z,11.02
2023-05-23T14:51:54.214Z,10.90
2023-05-23T14:54:21.372Z,11.85
2023-05-23T14:56:50.435Z,11.35
2023-05-23T14:59:20.943Z,11.00
2023-05-23T15:01:49.942Z,11.40
2023-05-23T15:04:20.761Z,11.65
2023-05-23T15:06:49.860Z,11.98
2023-05-23T15:09:18.936Z,10.75
2023-05-23T15:11:47.272Z,11.38
2023-05-23T15:14:14.391Z,11.32
2023-05-23T15:16:44.605Z,13.63
2023-05-23T15:19:12.326Z,11.60
2023-05-23T15:21:40.679Z,11.35
2023-05-23T15:24:11.643Z,11.70
2023-05-23T15:26:38.769Z,11.43
2023-05-23T15:29:06.209Z,11.48
2023-05-23T15:31:33.380Z,12.88
2023-05-23T15:34:01.184Z,11.43
2023-05-23T15:36:32.139Z,11.05
2023-05-23T15:38:59.705Z,12.25
2023-05-23T15:41:26.860Z,12.20
2023-05-23T15:43:54.206Z,12.30
2023-05-23T15:46:21.542Z,12.15
2023-05-23T15:48:48.871Z,12.15
2023-05-23T15:51:16.746Z,11.18
2023-05-23T15:53:59.686Z,11.63
2023-05-23T15:56:27.924Z,11.82
2023-05-23T15:58:55.457Z,11.35
2023-05-23T16:01:22.878Z,11.75
2023-05-23T16:03:50.234Z,11.70
2023-05-23T16:06:17.434Z,12.10
2023-05-23T16:08:44.699Z,12.55
2023-05-23T16:11:11.836Z,12.15
2023-05-23T16:13:39.017Z,11.88
2023-05-23T16:16:06.588Z,11.88
2023-05-23T16:18:34.106Z,11.68
2023-05-23T16:21:01.695Z,12.13
2023-05-23T16:23:28.853Z,12.52
2023-05-23T16:25:56.018Z,12.45
2023-05-23T16:28:23.331Z,12.27
2023-05-23T16:30:51.028Z,12.25
2023-05-23T16:33:18.214Z,12.45
2023-05-23T16:35:45.337Z,12.88
2023-05-23T16:38:12.621Z,13.30
2023-05-23T16:40:40.004Z,13.23
2023-05-23T16:43:07.304Z,12.88
2023-05-23T16:45:34.534Z,11.68
2023-05-23T16:48:01.841Z,12.07
2023-05-23T16:50:29.078Z,13.10
2023-05-23T16:52:56.165Z,12.80
2023-05-23T16:55:23.539Z,12.57
2023-05-23T16:57:50.814Z,12.20
2023-05-23T17:00:18.757Z,12.77
2023-05-23T17:02:46.167Z,12.27
2023-05-23T17:05:13.480Z,12.30
2023-05-23T17:07:40.719Z,12.52
2023-05-23T17:10:08.786Z,12.63
2023-05-23T17:12:36.377Z,12.40
2023-05-23T17:15:04.220Z,12.77
2023-05-23T17:17:31.656Z,12.55
2023-05-23T17:19:58.803Z,13.15
2023-05-23T17:22:26.065Z,13.25
2023-05-23T17:24:53.239Z,13.70
2023-05-23T17:27:20.475Z,13.38
2023-05-23T17:29:47.661Z,12.40
2023-05-23T17:32:15.097Z,12.70
2023-05-23T17:34:42.474Z,12.77
2023-05-23T17:37:11.983Z,13.32
2023-05-23T17:39:39.154Z,12.32
2023-05-23T17:42:06.413Z,12.68
2023-05-23T17:44:33.674Z,13.52
2023-05-23T17:47:01.050Z,15.07
2023-05-23T17:49:28.289Z,14.63
2023-05-23T17:51:56.702Z,14.80
2023-05-23T17:54:23.955Z,14.95
2023-05-23T17:56:51.754Z,15.32
2023-05-23T17:59:18.979Z,15.30
2023-05-23T18:01:46.483Z,16.08
2023-05-23T18:04:13.801Z,16.45
2023-05-23T18:06:41.009Z,17.00
2023-05-23T18:09:09.895Z,16.60
2023-05-23T18:11:38.137Z,16.65
2023-05-23T18:14:05.653Z,16.42
2023-05-23T18:16:32.922Z,16.75
2023-05-23T18:19:00.241Z,16.60
2023-05-23T18:21:27.596Z,16.48
2023-05-23T18:23:54.736Z,15.77
2023-05-23T18:26:21.918Z,16.55
2023-05-23T18:28:49.146Z,16.30
2023-05-23T18:31:16.326Z,16.50
2023-05-23T18:33:43.549Z,17.20
2023-05-23T18:36:10.786Z,17.08
2023-05-23T18:38:38.101Z,19.70
2023-05-23T18:41:05.327Z,19.77
2023-05-23T18:43:32.514Z,20.15
2023-05-23T18:45:59.681Z,17.65
2023-05-23T18:48:27.485Z,16.15
2023-05-23T18:50:54.694Z,16.40
2023-05-23T18:53:21.821Z,15.55
2023-05-23T18:55:49.008Z,14.90
2023-05-23T18:58:16.199Z,13.98
2023-05-23T19:00:44.921Z,13.23
2023-05-23T19:03:12.230Z,12.80
2023-05-23T19:05:39.680Z,12.82
2023-05-23T19:08:06.837Z,12.50
2023-05-23T19:10:34.065Z,12.70
2023-05-23T19:13:02.267Z,13.25
2023-05-23T19:15:29.526Z,13.38
2023-05-23T19:17:56.998Z,14.77
2023-05-23T19:20:24.292Z,14.40
2023-05-23T19:22:52.346Z,13.95
2023-05-23T19:25:21.201Z,13.98
2023-05-23T19:27:48.518Z,14.73
2023-05-23T19:30:15.872Z,14.00
2023-05-23T19:32:45.226Z,15.30
2023-05-23T19:35:14.743Z,15.18
2023-05-23T19:37:44.141Z,14.63
2023-05-23T19:40:12.144Z,15.18
2023-05-23T19:42:39.341Z,13.98
2023-05-23T19:45:07.844Z,14.10
2023-05-23T19:47:35.111Z,12.27
2023-05-23T19:50:02.346Z,12.77
2023-05-23T19:52:29.513Z,12.45
2023-05-23T19:54:57.191Z,12.52
2023-05-23T19:57:26.420Z,12.45
2023-05-23T19:59:53.605Z,12.25
2023-05-23T20:02:21.073Z,12.15
2023-05-23T20:04:48.496Z,12.00
2023-05-23T20:07:15.660Z,12.02
2023-05-23T20:09:42.837Z,12.38
2023-05-23T20:12:10.110Z,11.82
2023-05-23T20:14:37.785Z,11.75
2023-05-23T20:17:05.064Z,11.40
2023-05-23T20:19:32.350Z,11.98
2023-05-23T20:21:59.814Z,11.45
2023-05-23T20:24:27.099Z,10.65
2023-05-23T20:26:54.385Z,11.10
2023-05-23T20:29:21.842Z,11.10
2023-05-23T20:31:49.129Z,10.20
2023-05-23T20:34:16.491Z,10.55
2023-05-23T20:36:43.736Z,10.75
2023-05-23T20:39:11.143Z,10.10
2023-05-23T20:41:41.739Z,10.05
2023-05-23T20:44:13.387Z,9.95
2023-05-23T20:46:40.792Z,10.15
2023-05-23T20:49:08.734Z,9.73
2023-05-23T20:51:38.892Z,10.45
2023-05-23T20:54:06.673Z,11.20
2023-05-23T20:56:34.027Z,11.18
2023-05-23T20:59:01.332Z,11.55
2023-05-23T21:01:29.016Z,11.55
2023-05-23T21:03:57.358Z,11.75
2023-05-23T21:06:24.612Z,11.70
2023-05-23T21:08:51.871Z,11.50
2023-05-23T21:11:19.133Z,11.05
2023-05-23T21:13:46.361Z,9.88
2023-05-23T21:16:14.906Z,9.43
2023-05-23T21:18:42.150Z,8.88
2023-05-23T21:21:09.314Z,10.23
2023-05-23T21:23:36.654Z,10.45
2023-05-23T21:26:03.809Z,10.02
2023-05-23T21:28:31.125Z,9.98
2023-05-23T21:30:59.027Z,9.88
2023-05-23T21:33:26.295Z,10.63
2023-05-23T21:35:53.429Z,10.75
2023-05-23T21:38:21.081Z,10.30
2023-05-23T21:40:48.228Z,9.63
2023-05-23T21:43:15.598Z,9.60
2023-05-23T21:45:42.718Z,9.75
2023-05-23T21:48:10.023Z,9.27
2023-05-23T21:50:37.214Z,9.63
2023-05-23T21:53:04.444Z,9.52
2023-05-23T21:55:31.620Z,9.20
2023-05-23T21:57:58.825Z,8.43
2023-05-23T22:00:27.392Z,9.13
2023-05-23T22:02:54.660Z,8.45
2023-05-23T22:05:22.060Z,8.35
2023-05-23T22:07:49.156Z,7.82
2023-05-23T22:10:16.479Z,7.45
2023-05-23T22:12:43.721Z,7.97
2023-05-23T22:15:11.372Z,7.40
2023-05-23T22:17:43.465Z,8.52
2023-05-23T22:20:15.032Z,9.10
2023-05-23T22:22:42.453Z,8.60
2023-05-23T22:25:09.742Z,9.25
2023-05-23T22:27:36.921Z,9.30
2023-05-23T22:30:04.332Z,9.43
2023-05-23T22:32:31.643Z,8.57
2023-05-23T22:34:58.789Z,9.60
2023-05-23T22:37:26.012Z,9.00
2023-05-23T22:39:53.269Z,9.07
2023-05-23T22:42:20.617Z,8.95
2023-05-23T22:44:48.574Z,8.70
2023-05-23T22:47:15.810Z,8.52
2023-05-23T22:49:43.979Z,8.50
2023-05-23T22:52:13.049Z,8.30
2023-05-23T22:54:40.172Z,8.23
2023-05-23T22:57:07.324Z,8.45
2023-05-23T22:59:34.501Z,7.70
2023-05-23T23:02:01.716Z,8.07
2023-05-23T23:04:31.236Z,8.05
2023-05-23T23:06:59.548Z,8.75
2023-05-23T23:09:27.163Z,7.20
2023-05-23T23:11:54.909Z,7.95
2023-05-23T23:14:22.471Z,7.07
2023-05-23T23:16:54.709Z,7.10
2023-05-23T23:19:22.140Z,7.18
2023-05-23T23:21:49.319Z,6.60
2023-05-23T23:24:16.448Z,6.75
2023-05-23T23:26:43.701Z,6.80
2023-05-23T23:29:11.349Z,7.00
2023-05-23T23:31:38.568Z,7.00
2023-05-23T23:34:05.798Z,6.47
2023-05-23T23:36:32.970Z,6.15
2023-05-23T23:39:00.269Z,6.20
2023-05-23T23:41:27.554Z,5.93
2023-05-23T23:43:54.723Z,6.07
2023-05-23T23:46:21.896Z,6.60
2023-05-23T23:48:49.089Z,7.18
2023-05-23T23:51:16.447Z,7.32
2023-05-23T23:53:44.572Z,6.47
2023-05-23T23:56:13.460Z,6.63
2023-05-23T23:58:40.641Z,6.40
